createdAt,value
2018-08-17T00:00:57.664Z,20.38
2018-08-17T00:01:57.653Z,20.33
2018-08-17T00:02:57.652Z,20.35
2018-08-17T00:03:57.654Z,20.33
2018-08-17T00:04:57.646Z,20.20
2018-08-17T00:05:57.642Z,20.23
2018-08-17T00:06:57.640Z,20.20
2018-08-17T00:07:57.638Z,20.20
2018-08-17T00:08:57.634Z,20.19
2018-08-17T00:09:57.633Z,20.20
2018-08-17T00:10:57.630Z,20.23
2018-08-17T00:11:57.633Z,20.20
2018-08-17T00:12:57.624Z,20.12
2018-08-17T00:13:57.628Z,20.19
2018-08-17T00:14:57.626Z,20.13
2018-08-17T00:15:57.617Z,20.16
2018-08-17T00:16:57.613Z,20.10
2018-08-17T00:17:57.610Z,20.02
2018-08-17T00:18:57.608Z,20.05
2018-08-17T00:19:57.604Z,20.01
2018-08-17T00:20:57.601Z,20.08
2018-08-17T00:21:57.599Z,20.04
2018-08-17T00:22:57.597Z,20.05
2018-08-17T00:23:57.599Z,20.08
2018-08-17T00:24:57.591Z,20.02
2018-08-17T00:25:57.595Z,19.95
2018-08-17T00:26:57.591Z,19.95
2018-08-17T00:27:57.588Z,19.95
2018-08-17T00:28:57.584Z,20.00
2018-08-17T00:29:57.583Z,19.94
2018-08-17T00:30:57.577Z,19.94
2018-08-17T00:31:57.572Z,19.90
2018-08-17T00:32:57.567Z,19.97
2018-08-17T00:33:57.569Z,20.02
2018-08-17T00:34:57.564Z,19.87
2018-08-17T00:35:57.567Z,19.92
2018-08-17T00:36:57.561Z,19.87
2018-08-17T00:37:57.559Z,19.92
2018-08-17T00:38:57.557Z,19.87
2018-08-17T00:39:57.549Z,19.92
2018-08-17T00:40:57.547Z,19.90
2018-08-17T00:41:57.542Z,19.94
2018-08-17T00:42:57.541Z,19.75
2018-08-17T00:43:57.538Z,19.87
2018-08-17T00:44:57.537Z,19.80
2018-08-17T00:45:57.537Z,19.85
2018-08-17T00:46:57.529Z,19.83
2018-08-17T00:47:57.584Z,19.87
2018-08-17T00:48:57.526Z,19.87
2018-08-17T00:49:57.553Z,19.79
2018-08-17T00:50:57.519Z,19.76
2018-08-17T00:51:57.518Z,19.76
2018-08-17T00:52:57.512Z,19.75
2018-08-17T00:53:57.510Z,19.78
2018-08-17T00:54:57.512Z,19.79
2018-08-17T00:55:57.501Z,19.80
2018-08-17T00:56:57.506Z,19.70
2018-08-17T00:57:57.502Z,19.76
2018-08-17T00:58:57.499Z,19.79
2018-08-17T00:59:57.492Z,19.79
2018-08-17T01:00:57.493Z,19.89
2018-08-17T01:01:57.489Z,19.82
2018-08-17T01:02:57.483Z,19.75
2018-08-17T01:03:57.477Z,19.85
2018-08-17T01:04:57.476Z,19.76
2018-08-17T01:05:57.471Z,19.85
2018-08-17T01:06:57.468Z,19.85
2018-08-17T01:07:57.467Z,19.83
2018-08-17T01:08:57.467Z,19.72
2018-08-17T01:09:57.458Z,19.76
2018-08-17T01:10:57.462Z,19.80
2018-08-17T01:11:57.462Z,19.80
2018-08-17T01:12:57.456Z,19.78
2018-08-17T01:13:57.449Z,19.76
2018-08-17T01:14:57.480Z,19.65
2018-08-17T01:15:57.461Z,19.58
2018-08-17T01:16:57.442Z,19.64
2018-08-17T01:17:57.438Z,19.64
2018-08-17T01:18:57.434Z,19.65
2018-08-17T01:19:57.428Z,19.67
2018-08-17T01:20:57.430Z,19.65
2018-08-17T01:21:57.424Z,19.67
2018-08-17T01:22:57.424Z,19.71
2018-08-17T01:23:57.419Z,19.68
2018-08-17T01:24:57.421Z,19.62
2018-08-17T01:25:57.412Z,19.57
2018-08-17T01:26:57.414Z,19.61
2018-08-17T01:27:57.404Z,19.52
2018-08-17T01:28:57.400Z,19.50
2018-08-17T01:29:57.400Z,19.50
2018-08-17T01:30:57.394Z,19.50
2018-08-17T01:31:57.395Z,19.50
2018-08-17T01:32:57.392Z,19.47
2018-08-17T01:33:57.389Z,19.40
2018-08-17T01:34:57.381Z,19.32
2018-08-17T01:35:57.380Z,19.39
2018-08-17T01:36:57.374Z,19.38
2018-08-17T01:37:57.380Z,19.35
2018-08-17T01:38:57.373Z,19.42
2018-08-17T01:39:57.365Z,19.25
2018-08-17T01:40:57.363Z,19.32
2018-08-17T01:41:57.359Z,19.34
2018-08-17T01:42:57.360Z,19.34
2018-08-17T01:43:57.361Z,19.31
2018-08-17T01:44:57.350Z,19.31
2018-08-17T01:45:57.356Z,19.32
2018-08-17T01:46:57.350Z,19.28
2018-08-17T01:47:57.341Z,19.30
2018-08-17T01:48:57.340Z,19.27
2018-08-17T01:49:57.333Z,19.32
2018-08-17T01:50:57.341Z,19.20
2018-08-17T01:51:57.333Z,19.28
2018-08-17T01:52:57.322Z,19.28
2018-08-17T01:53:57.320Z,19.24
2018-08-17T01:54:57.317Z,19.27
2018-08-17T01:55:57.314Z,19.15
2018-08-17T01:56:57.313Z,19.23
2018-08-17T01:57:57.316Z,19.15
2018-08-17T01:58:57.308Z,19.20
2018-08-17T01:59:57.304Z,19.16
2018-08-17T02:00:57.295Z,19.15
2018-08-17T02:01:57.293Z,19.12
2018-08-17T02:02:57.295Z,19.17
2018-08-17T02:03:57.287Z,19.06
2018-08-17T02:04:57.284Z,19.05
2018-08-17T02:05:57.281Z,19.13
2018-08-17T02:06:57.277Z,19.05
2018-08-17T02:07:57.275Z,19.20
2018-08-17T02:08:57.269Z,19.23
2018-08-17T02:09:57.268Z,19.27
2018-08-17T02:10:57.264Z,19.24
2018-08-17T02:11:57.264Z,19.28
2018-08-17T02:12:57.254Z,19.34
2018-08-17T02:13:57.255Z,19.34
2018-08-17T02:14:57.253Z,19.39
2018-08-17T02:15:57.255Z,19.42
2018-08-17T02:16:57.247Z,19.40
2018-08-17T02:17:57.244Z,19.49
2018-08-17T02:18:57.238Z,19.52
2018-08-17T02:19:57.233Z,19.49
2018-08-17T02:20:57.235Z,19.43
2018-08-17T02:21:57.226Z,19.53
2018-08-17T02:22:57.227Z,19.38
2018-08-17T02:23:57.219Z,19.32
2018-08-17T02:24:57.214Z,19.34
2018-08-17T02:25:57.213Z,19.28
2018-08-17T02:26:57.209Z,19.31
2018-08-17T02:27:57.205Z,19.31
2018-08-17T02:28:57.201Z,19.34
2018-08-17T02:29:57.198Z,19.32
2018-08-17T02:30:57.202Z,19.30
2018-08-17T02:31:57.192Z,19.31
2018-08-17T02:32:57.188Z,19.30
2018-08-17T02:33:57.190Z,19.38
2018-08-17T02:34:57.182Z,19.42
2018-08-17T02:35:57.186Z,19.34
2018-08-17T02:36:57.176Z,19.35
2018-08-17T02:37:57.171Z,19.39
2018-08-17T02:38:57.169Z,19.47
2018-08-17T02:39:57.165Z,19.49
2018-08-17T02:40:57.161Z,19.52
2018-08-17T02:41:57.161Z,19.52
2018-08-17T02:42:57.157Z,19.40
2018-08-17T02:43:57.156Z,19.34
2018-08-17T02:44:57.146Z,19.32
2018-08-17T02:45:57.150Z,19.32
2018-08-17T02:46:57.141Z,19.27
2018-08-17T02:47:57.141Z,19.16
2018-08-17T02:48:57.132Z,19.09
2018-08-17T02:49:57.130Z,19.07
2018-08-17T02:50:57.132Z,19.10
2018-08-17T02:51:57.124Z,19.06
2018-08-17T02:52:57.127Z,19.12
2018-08-17T02:53:57.116Z,19.15
2018-08-17T02:54:57.113Z,19.15
2018-08-17T02:55:57.112Z,19.02
2018-08-17T02:56:57.105Z,18.99
2018-08-17T02:57:57.107Z,19.02
2018-08-17T02:58:57.105Z,19.09
2018-08-17T02:59:57.104Z,19.05
2018-08-17T03:00:57.093Z,18.94
2018-08-17T03:01:57.089Z,18.97
2018-08-17T03:02:57.087Z,18.93
2018-08-17T03:03:57.089Z,18.97
2018-08-17T03:04:57.078Z,18.96
2018-08-17T03:05:57.075Z,18.91
2018-08-17T03:06:57.079Z,18.89
2018-08-17T03:07:57.070Z,18.91
2018-08-17T03:08:57.072Z,18.99
2018-08-17T03:09:57.060Z,18.93
2018-08-17T03:10:57.062Z,19.01
2018-08-17T03:11:57.055Z,18.91
2018-08-17T03:12:57.052Z,19.02
2018-08-17T03:13:57.055Z,18.89
2018-08-17T03:14:57.050Z,18.90
2018-08-17T03:15:57.044Z,18.93
2018-08-17T03:16:57.047Z,18.86
2018-08-17T03:17:57.032Z,18.78
2018-08-17T03:18:57.027Z,18.82
2018-08-17T03:19:57.023Z,18.71
2018-08-17T03:20:57.020Z,18.78
2018-08-17T03:21:57.020Z,18.74
2018-08-17T03:22:57.013Z,18.76
2018-08-17T03:23:57.010Z,18.76
2018-08-17T03:24:57.006Z,18.69
2018-08-17T03:25:57.005Z,18.56
2018-08-17T03:26:57.008Z,18.57
2018-08-17T03:27:56.997Z,18.60
2018-08-17T03:28:56.996Z,18.65
2018-08-17T03:29:56.987Z,18.54
2018-08-17T03:30:56.984Z,18.53
2018-08-17T03:31:56.981Z,18.56
2018-08-17T03:32:56.983Z,18.50
2018-08-17T03:33:56.971Z,18.47
2018-08-17T03:34:56.968Z,18.53
2018-08-17T03:35:56.963Z,18.53
2018-08-17T03:36:56.966Z,18.56
2018-08-17T03:37:56.978Z,18.72
2018-08-17T03:38:56.960Z,18.74
2018-08-17T03:39:56.953Z,18.76
2018-08-17T03:40:56.945Z,18.79
2018-08-17T03:41:56.941Z,18.76
2018-08-17T03:42:56.939Z,18.83
2018-08-17T03:43:56.935Z,18.86
2018-08-17T03:44:56.936Z,18.91
2018-08-17T03:45:56.932Z,18.87
2018-08-17T03:46:56.927Z,18.84
2018-08-17T03:47:56.920Z,18.74
2018-08-17T03:48:56.920Z,18.76
2018-08-17T03:49:56.912Z,18.90
2018-08-17T03:50:56.908Z,18.91
2018-08-17T03:51:56.906Z,18.86
2018-08-17T03:52:56.903Z,18.86
2018-08-17T03:53:56.898Z,18.84
2018-08-17T03:54:56.893Z,18.79
2018-08-17T03:55:56.890Z,18.78
2018-08-17T03:56:56.888Z,18.76
2018-08-17T03:57:56.896Z,18.74
2018-08-17T03:58:56.879Z,18.68
2018-08-17T03:59:56.880Z,18.71
2018-08-17T04:00:56.885Z,18.71
2018-08-17T04:01:56.866Z,18.68
2018-08-17T04:02:56.870Z,18.74
2018-08-17T04:03:56.869Z,18.75
2018-08-17T04:04:56.861Z,18.68
2018-08-17T04:05:56.852Z,18.59
2018-08-17T04:06:56.852Z,18.69
2018-08-17T04:07:56.850Z,18.71
2018-08-17T04:08:56.846Z,18.65
2018-08-17T04:09:56.840Z,18.68
2018-08-17T04:10:56.836Z,18.76
2018-08-17T04:11:56.830Z,18.76
2018-08-17T04:12:56.832Z,18.84
2018-08-17T04:13:56.833Z,18.96
2018-08-17T04:14:56.821Z,19.02
2018-08-17T04:15:56.819Z,19.16
2018-08-17T04:16:56.816Z,19.07
2018-08-17T04:17:56.810Z,19.10
2018-08-17T04:18:56.804Z,19.13
2018-08-17T04:19:56.803Z,19.06
2018-08-17T04:20:56.794Z,19.10
2018-08-17T04:21:56.797Z,19.09
2018-08-17T04:22:56.789Z,19.07
2018-08-17T04:23:56.943Z,19.02
2018-08-17T04:24:56.782Z,18.94
2018-08-17T04:25:56.776Z,18.96
2018-08-17T04:26:56.773Z,18.89
2018-08-17T04:27:56.774Z,18.84
2018-08-17T04:28:56.766Z,18.84
2018-08-17T04:29:56.774Z,18.89
2018-08-17T04:30:56.763Z,18.89
2018-08-17T04:31:56.754Z,18.86
2018-08-17T04:32:56.750Z,18.84
2018-08-17T04:33:56.747Z,18.89
2018-08-17T04:34:56.750Z,18.86
2018-08-17T04:35:56.745Z,18.90
2018-08-17T04:36:56.736Z,18.90
2018-08-17T04:37:56.734Z,18.91
2018-08-17T04:38:56.732Z,18.93
2018-08-17T04:39:56.726Z,18.91
2018-08-17T04:40:56.727Z,18.91
2018-08-17T04:41:56.721Z,18.94
2018-08-17T04:42:56.714Z,18.90
2018-08-17T04:43:56.715Z,19.02
2018-08-17T04:44:56.705Z,18.99
2018-08-17T04:45:56.705Z,19.15
2018-08-17T04:46:56.702Z,19.12
2018-08-17T04:47:56.696Z,19.09
2018-08-17T04:48:56.690Z,19.01
2018-08-17T04:49:56.691Z,19.07
2018-08-17T04:50:56.691Z,19.12
2018-08-17T04:51:56.687Z,19.13
2018-08-17T04:52:56.683Z,19.15
2018-08-17T04:53:56.675Z,19.15
2018-08-17T04:54:56.670Z,19.25
2018-08-17T04:55:56.667Z,19.27
2018-08-17T04:56:56.664Z,19.30
2018-08-17T04:57:56.658Z,19.32
2018-08-17T04:58:56.657Z,19.32
2018-08-17T04:59:56.651Z,19.35
2018-08-17T05:00:56.645Z,19.49
2018-08-17T05:01:56.646Z,19.42
2018-08-17T05:02:56.641Z,19.50
2018-08-17T05:03:56.642Z,19.39
2018-08-17T05:04:56.631Z,19.43
2018-08-17T05:05:56.628Z,19.35
2018-08-17T05:06:56.625Z,19.42
2018-08-17T05:07:56.624Z,19.52
2018-08-17T05:08:56.657Z,19.47
2018-08-17T05:09:56.618Z,19.46
2018-08-17T05:10:56.612Z,19.52
2018-08-17T05:11:56.606Z,19.52
2018-08-17T05:12:56.606Z,19.52
2018-08-17T05:13:56.597Z,19.57
2018-08-17T05:14:56.602Z,19.60
2018-08-17T05:15:56.596Z,19.60
2018-08-17T05:16:56.588Z,19.62
2018-08-17T05:17:56.582Z,19.65
2018-08-17T05:18:56.581Z,19.70
2018-08-17T05:19:56.587Z,19.76
2018-08-17T05:20:56.572Z,19.79
2018-08-17T05:21:56.604Z,19.79
2018-08-17T05:22:56.566Z,19.85
2018-08-17T05:23:56.564Z,19.87
2018-08-17T05:24:56.559Z,19.87
2018-08-17T05:25:56.562Z,19.87
2018-08-17T05:26:56.558Z,20.00
2018-08-17T05:27:56.554Z,20.15
2018-08-17T05:28:56.549Z,20.31
2018-08-17T05:29:56.543Z,20.53
2018-08-17T05:30:56.539Z,20.68
2018-08-17T05:31:56.536Z,20.78
2018-08-17T05:32:56.533Z,20.85
2018-08-17T05:33:56.539Z,20.93
2018-08-17T05:34:56.529Z,20.96
2018-08-17T05:35:56.574Z,21.08
2018-08-17T05:36:56.524Z,21.16
2018-08-17T05:37:56.520Z,21.26
2018-08-17T05:38:56.521Z,21.27
2018-08-17T05:39:56.521Z,21.46
2018-08-17T05:40:56.517Z,21.49
2018-08-17T05:41:56.517Z,21.46
2018-08-17T05:42:56.514Z,21.53
2018-08-17T05:43:56.503Z,21.49
2018-08-17T05:44:56.524Z,21.52
2018-08-17T05:45:56.500Z,21.51
2018-08-17T05:46:56.497Z,21.55
2018-08-17T05:47:56.496Z,21.58
2018-08-17T05:48:56.496Z,21.58
2018-08-17T05:49:56.487Z,21.63
2018-08-17T05:50:56.485Z,21.71
2018-08-17T05:51:56.485Z,21.73
2018-08-17T05:52:56.487Z,21.75
2018-08-17T05:53:56.481Z,21.82
2018-08-17T05:54:56.578Z,21.89
2018-08-17T05:55:56.473Z,21.93
2018-08-17T05:56:56.475Z,22.08
2018-08-17T05:57:56.474Z,22.06
2018-08-17T05:58:56.466Z,22.15
2018-08-17T05:59:56.464Z,22.21
2018-08-17T06:00:56.463Z,22.29
2018-08-17T06:01:56.459Z,22.42
2018-08-17T06:02:56.538Z,22.31
2018-08-17T06:03:56.459Z,22.48
2018-08-17T06:04:56.556Z,22.46
2018-08-17T06:05:56.451Z,22.48
2018-08-17T06:06:56.452Z,22.60
2018-08-17T06:07:56.454Z,22.57
2018-08-17T06:08:56.447Z,22.72
2018-08-17T06:09:56.495Z,22.74
2018-08-17T06:10:56.506Z,22.76
2018-08-17T06:11:56.451Z,23.04
2018-08-17T06:12:56.439Z,23.04
2018-08-17T06:13:56.442Z,23.09
2018-08-17T06:14:56.437Z,23.11
2018-08-17T06:15:56.440Z,23.31
2018-08-17T06:16:56.440Z,23.31
2018-08-17T06:17:56.431Z,23.44
2018-08-17T06:18:56.428Z,23.49
2018-08-17T06:19:56.430Z,23.63
2018-08-17T06:20:56.425Z,23.75
2018-08-17T06:21:56.427Z,23.75
2018-08-17T06:22:56.424Z,23.94
2018-08-17T06:23:56.422Z,24.05
2018-08-17T06:24:56.419Z,24.06
2018-08-17T06:25:56.423Z,24.16
2018-08-17T06:26:56.417Z,24.08
2018-08-17T06:27:56.425Z,24.00
2018-08-17T06:28:56.420Z,24.04
2018-08-17T06:29:56.422Z,24.12
2018-08-17T06:30:56.414Z,24.12
2018-08-17T06:31:56.421Z,24.21
2018-08-17T06:32:56.411Z,24.15
2018-08-17T06:33:56.413Z,24.04
2018-08-17T06:34:56.409Z,24.08
2018-08-17T06:35:56.463Z,24.21
2018-08-17T06:36:56.409Z,24.21
2018-08-17T06:37:56.416Z,24.19
2018-08-17T06:38:56.412Z,24.27
2018-08-17T06:39:56.408Z,24.29
2018-08-17T06:40:56.404Z,24.34
2018-08-17T06:41:56.403Z,24.30
2018-08-17T06:42:56.404Z,24.42
2018-08-17T06:43:56.407Z,24.42
2018-08-17T06:44:56.403Z,24.34
2018-08-17T06:45:56.402Z,24.29
2018-08-17T06:46:56.403Z,24.33
2018-08-17T06:47:56.407Z,24.34
2018-08-17T06:48:56.403Z,24.41
2018-08-17T06:49:56.399Z,24.44
2018-08-17T06:50:56.476Z,24.60
2018-08-17T06:51:56.397Z,24.71
2018-08-17T06:52:56.399Z,24.71
2018-08-17T06:53:56.401Z,24.67
2018-08-17T06:54:56.401Z,24.77
2018-08-17T06:55:56.398Z,24.89
2018-08-17T06:56:56.454Z,24.77
2018-08-17T06:57:56.395Z,24.84
2018-08-17T06:58:56.396Z,24.83
2018-08-17T06:59:56.395Z,24.87
2018-08-17T07:00:56.392Z,25.05
2018-08-17T07:01:56.398Z,25.02
2018-08-17T07:02:56.396Z,25.04
2018-08-17T07:03:56.394Z,25.07
2018-08-17T07:04:56.396Z,24.99
2018-08-17T07:05:56.391Z,25.01
2018-08-17T07:06:56.406Z,25.01
2018-08-17T07:07:56.406Z,25.02
2018-08-17T07:08:56.459Z,25.12
2018-08-17T07:09:56.395Z,25.20
2018-08-17T07:10:56.397Z,25.27
2018-08-17T07:11:56.397Z,25.30
2018-08-17T07:12:56.398Z,25.44
2018-08-17T07:13:56.391Z,25.39
2018-08-17T07:14:56.392Z,25.46
2018-08-17T07:15:56.438Z,25.44
2018-08-17T07:16:56.394Z,25.57
2018-08-17T07:17:56.392Z,25.56
2018-08-17T07:18:56.397Z,25.66
2018-08-17T07:19:56.393Z,25.74
2018-08-17T07:20:56.392Z,25.67
2018-08-17T07:21:56.392Z,25.74
2018-08-17T07:22:56.395Z,25.72
2018-08-17T07:23:56.402Z,25.72
2018-08-17T07:24:56.397Z,25.82
2018-08-17T07:25:56.398Z,25.86
2018-08-17T07:26:56.394Z,25.90
2018-08-17T07:27:56.561Z,25.97
2018-08-17T07:28:56.395Z,25.94
2018-08-17T07:29:56.394Z,25.97
2018-08-17T07:30:56.396Z,26.06
2018-08-17T07:31:56.395Z,26.27
2018-08-17T07:32:56.396Z,26.24
2018-08-17T07:33:56.396Z,26.38
2018-08-17T07:34:56.397Z,26.35
2018-08-17T07:35:56.470Z,26.38
2018-08-17T07:36:56.398Z,26.39
2018-08-17T07:37:56.404Z,26.28
2018-08-17T07:38:56.404Z,26.20
2018-08-17T07:39:56.406Z,26.04
2018-08-17T07:40:56.404Z,26.08
2018-08-17T07:41:56.414Z,26.09
2018-08-17T07:42:56.410Z,26.08
2018-08-17T07:43:56.407Z,26.20
2018-08-17T07:44:56.407Z,26.28
2018-08-17T07:45:56.410Z,26.24
2018-08-17T07:46:56.408Z,26.34
2018-08-17T07:47:56.501Z,26.36
2018-08-17T07:48:56.413Z,26.39
2018-08-17T07:49:56.410Z,26.41
2018-08-17T07:50:56.412Z,26.54
2018-08-17T07:51:56.410Z,26.53
2018-08-17T07:52:56.415Z,26.53
2018-08-17T07:53:56.412Z,26.54
2018-08-17T07:54:56.412Z,26.68
2018-08-17T07:55:56.413Z,26.72
2018-08-17T07:56:56.414Z,26.86
2018-08-17T07:57:56.419Z,27.06
2018-08-17T07:58:56.429Z,27.12
2018-08-17T07:59:56.419Z,27.20
2018-08-17T08:00:56.421Z,27.23
2018-08-17T08:01:56.417Z,27.25
2018-08-17T08:02:56.421Z,27.43
2018-08-17T08:03:56.421Z,27.53
2018-08-17T08:04:56.422Z,27.68
2018-08-17T08:05:56.425Z,27.77
2018-08-17T08:06:56.425Z,27.71
2018-08-17T08:07:56.430Z,27.80
2018-08-17T08:08:56.426Z,27.83
2018-08-17T08:09:56.461Z,27.91
2018-08-17T08:10:56.439Z,27.93
2018-08-17T08:11:56.434Z,27.98
2018-08-17T08:12:56.432Z,27.90
2018-08-17T08:13:56.436Z,27.84
2018-08-17T08:14:56.442Z,27.74
2018-08-17T08:15:56.443Z,27.65
2018-08-17T08:16:56.441Z,27.59
2018-08-17T08:17:56.440Z,27.55
2018-08-17T08:18:56.442Z,27.48
2018-08-17T08:19:56.448Z,27.30
2018-08-17T08:20:56.451Z,27.24
2018-08-17T08:21:56.449Z,27.11
2018-08-17T08:22:56.448Z,26.98
2018-08-17T08:23:56.452Z,26.86
2018-08-17T08:24:56.457Z,26.73
2018-08-17T08:25:56.478Z,26.60
2018-08-17T08:26:56.460Z,26.42
2018-08-17T08:27:56.455Z,26.28
2018-08-17T08:28:56.464Z,26.13
2018-08-17T08:29:56.463Z,25.98
2018-08-17T08:30:56.461Z,25.96
2018-08-17T08:31:56.467Z,25.75
2018-08-17T08:32:56.465Z,25.67
2018-08-17T08:33:56.463Z,25.60
2018-08-17T08:34:56.464Z,25.51
2018-08-17T08:35:56.466Z,25.44
2018-08-17T08:36:56.465Z,25.44
2018-08-17T08:37:56.468Z,25.23
2018-08-17T08:38:56.475Z,25.23
2018-08-17T08:39:56.621Z,25.16
2018-08-17T08:40:56.474Z,25.12
2018-08-17T08:41:56.475Z,25.07
2018-08-17T08:42:56.473Z,25.07
2018-08-17T08:43:56.475Z,25.07
2018-08-17T08:44:56.472Z,24.99
2018-08-17T08:45:56.558Z,24.89
2018-08-17T08:46:56.476Z,24.98
2018-08-17T08:47:56.474Z,24.90
2018-08-17T08:48:56.479Z,24.92
2018-08-17T08:49:56.474Z,25.04
2018-08-17T08:50:56.481Z,25.01
2018-08-17T08:51:56.474Z,25.22
2018-08-17T08:52:56.481Z,25.30
2018-08-17T08:53:56.477Z,25.41
2018-08-17T08:54:56.476Z,25.56
2018-08-17T08:55:56.546Z,25.63
2018-08-17T08:56:56.476Z,25.71
2018-08-17T08:57:56.480Z,25.72
2018-08-17T08:58:56.481Z,25.78
2018-08-17T08:59:56.481Z,25.86
2018-08-17T09:00:56.485Z,25.97
2018-08-17T09:01:56.480Z,26.00
2018-08-17T09:02:56.485Z,25.97
2018-08-17T09:03:56.485Z,26.08
2018-08-17T09:04:56.489Z,26.17
2018-08-17T09:05:56.481Z,26.35
2018-08-17T09:06:56.487Z,26.41
2018-08-17T09:07:56.487Z,26.54
2018-08-17T09:08:56.484Z,26.61
2018-08-17T09:09:56.491Z,26.61
2018-08-17T09:10:56.486Z,26.64
2018-08-17T09:11:56.493Z,26.79
2018-08-17T09:12:56.493Z,26.88
2018-08-17T09:13:56.492Z,27.02
2018-08-17T09:14:56.491Z,26.98
2018-08-17T09:15:56.491Z,27.11
2018-08-17T09:16:56.491Z,27.08
2018-08-17T09:17:56.493Z,27.13
2018-08-17T09:18:56.497Z,27.23
2018-08-17T09:19:56.494Z,27.33
2018-08-17T09:20:56.499Z,27.39
2018-08-17T09:21:56.502Z,27.48
2018-08-17T09:22:56.504Z,27.48
2018-08-17T09:23:56.502Z,27.43
2018-08-17T09:24:56.501Z,27.42
2018-08-17T09:25:56.502Z,27.46
2018-08-17T09:26:56.506Z,27.48
2018-08-17T09:27:56.511Z,27.55
2018-08-17T09:28:56.505Z,27.66
2018-08-17T09:29:56.560Z,27.74
2018-08-17T09:30:56.512Z,27.71
2018-08-17T09:31:56.518Z,27.69
2018-08-17T09:32:56.518Z,27.78
2018-08-17T09:33:56.519Z,27.83
2018-08-17T09:34:56.515Z,27.99
2018-08-17T09:35:56.576Z,27.96
2018-08-17T09:36:56.518Z,28.15
2018-08-17T09:37:56.521Z,28.15
2018-08-17T09:38:56.529Z,28.25
2018-08-17T09:39:56.531Z,28.33
2018-08-17T09:40:56.524Z,28.40
2018-08-17T09:41:56.589Z,28.30
2018-08-17T09:42:56.529Z,28.39
2018-08-17T09:43:56.536Z,28.40
2018-08-17T09:44:56.540Z,28.46
2018-08-17T09:45:56.535Z,28.45
2018-08-17T09:46:56.536Z,28.36
2018-08-17T09:47:56.539Z,28.28
2018-08-17T09:48:56.543Z,28.28
2018-08-17T09:49:56.547Z,28.25
2018-08-17T09:50:56.550Z,28.45
2018-08-17T09:51:56.547Z,28.39
2018-08-17T09:52:56.549Z,28.30
2018-08-17T09:53:56.551Z,28.23
2018-08-17T09:54:56.553Z,28.27
2018-08-17T09:55:56.555Z,28.32
2018-08-17T09:56:56.563Z,28.39
2018-08-17T09:57:56.561Z,28.38
2018-08-17T09:58:56.567Z,28.39
2018-08-17T09:59:56.563Z,28.45
2018-08-17T10:00:56.565Z,28.40
2018-08-17T10:01:56.571Z,28.45
2018-08-17T10:02:56.572Z,28.52
2018-08-17T10:03:56.591Z,28.60
2018-08-17T10:04:56.577Z,28.65
2018-08-17T10:05:56.578Z,28.74
2018-08-17T10:06:56.580Z,28.73
2018-08-17T10:07:56.580Z,28.89
2018-08-17T10:08:56.588Z,28.92
2018-08-17T10:09:56.591Z,29.08
2018-08-17T10:10:56.586Z,29.14
2018-08-17T10:11:56.591Z,29.20
2018-08-17T10:12:56.591Z,29.26
2018-08-17T10:13:56.596Z,29.25
2018-08-17T10:14:56.595Z,29.29
2018-08-17T10:15:56.601Z,29.33
2018-08-17T10:16:56.599Z,29.29
2018-08-17T10:17:56.607Z,29.37
2018-08-17T10:18:56.606Z,29.48
2018-08-17T10:19:56.616Z,29.54
2018-08-17T10:20:56.804Z,29.48
2018-08-17T10:21:56.853Z,29.62
2018-08-17T10:22:56.617Z,29.58
2018-08-17T10:23:56.624Z,29.67
2018-08-17T10:24:56.631Z,29.70
2018-08-17T10:25:56.624Z,29.71
2018-08-17T10:26:56.625Z,29.73
2018-08-17T10:27:56.630Z,29.70
2018-08-17T10:28:56.631Z,29.76
2018-08-17T10:29:56.637Z,29.71
2018-08-17T10:30:56.637Z,29.76
2018-08-17T10:31:56.645Z,29.81
2018-08-17T10:32:56.641Z,29.76
2018-08-17T10:33:56.729Z,29.85
2018-08-17T10:34:56.691Z,29.82
2018-08-17T10:35:56.656Z,29.86
2018-08-17T10:36:56.657Z,29.91
2018-08-17T10:37:56.657Z,30.06
2018-08-17T10:38:56.667Z,29.95
2018-08-17T10:39:56.667Z,30.08
2018-08-17T10:40:56.668Z,30.10
2018-08-17T10:41:56.669Z,30.06
2018-08-17T10:42:56.685Z,29.99
2018-08-17T10:43:56.677Z,30.00
2018-08-17T10:44:56.683Z,30.08
2018-08-17T10:45:56.685Z,30.10
2018-08-17T10:46:56.690Z,30.07
2018-08-17T10:47:56.691Z,30.10
2018-08-17T10:48:56.769Z,30.13
2018-08-17T10:49:56.701Z,30.23
2018-08-17T10:50:56.698Z,30.23
2018-08-17T10:51:56.702Z,30.28
2018-08-17T10:52:56.707Z,30.37
2018-08-17T10:53:56.706Z,30.42
2018-08-17T10:54:56.712Z,30.49
2018-08-17T10:55:56.720Z,30.54
2018-08-17T10:56:56.716Z,30.56
2018-08-17T10:57:56.719Z,30.57
2018-08-17T10:58:56.722Z,30.60
2018-08-17T10:59:56.729Z,30.57
2018-08-17T11:00:56.728Z,30.61
2018-08-17T11:01:56.736Z,30.53
2018-08-17T11:02:56.742Z,30.54
2018-08-17T11:03:56.744Z,30.54
2018-08-17T11:04:56.747Z,30.59
2018-08-17T11:05:56.745Z,30.56
2018-08-17T11:06:56.750Z,30.67
2018-08-17T11:07:56.756Z,30.59
2018-08-17T11:08:56.756Z,30.75
2018-08-17T11:09:56.761Z,30.61
2018-08-17T11:10:56.778Z,30.59
2018-08-17T11:11:56.771Z,30.60
2018-08-17T11:12:56.773Z,30.60
2018-08-17T11:13:56.776Z,30.75
2018-08-17T11:14:56.779Z,30.82
2018-08-17T11:15:56.787Z,30.75
2018-08-17T11:16:56.820Z,30.85
2018-08-17T11:17:56.800Z,30.86
2018-08-17T11:18:56.791Z,30.94
2018-08-17T11:19:56.799Z,31.04
2018-08-17T11:20:56.799Z,30.97
2018-08-17T11:21:56.801Z,31.04
2018-08-17T11:22:56.842Z,31.15
2018-08-17T11:23:56.815Z,31.13
2018-08-17T11:24:56.817Z,31.19
2018-08-17T11:25:56.819Z,31.15
2018-08-17T11:26:56.824Z,30.94
2018-08-17T11:27:56.832Z,30.97
2018-08-17T11:28:56.836Z,30.91
2018-08-17T11:29:56.831Z,30.91
2018-08-17T11:30:56.834Z,30.94
2018-08-17T11:31:56.841Z,30.73
2018-08-17T11:32:56.842Z,30.45
2018-08-17T11:33:56.849Z,30.32
2018-08-17T11:34:56.852Z,30.37
2018-08-17T11:35:56.854Z,30.51
2018-08-17T11:36:56.856Z,30.70
2018-08-17T11:37:56.861Z,30.56
2018-08-17T11:38:56.863Z,30.85
2018-08-17T11:39:56.866Z,30.91
2018-08-17T11:40:56.870Z,30.94
2018-08-17T11:41:56.880Z,31.12
2018-08-17T11:42:56.881Z,31.18
2018-08-17T11:43:56.887Z,31.28
2018-08-17T11:44:56.884Z,31.25
2018-08-17T11:45:56.894Z,31.19
2018-08-17T11:46:56.894Z,31.35
2018-08-17T11:47:56.900Z,31.20
2018-08-17T11:48:56.905Z,31.01
2018-08-17T11:49:56.907Z,31.09
2018-08-17T11:50:56.908Z,30.64
2018-08-17T11:51:56.917Z,30.28
2018-08-17T11:52:56.919Z,30.37
2018-08-17T11:53:57.005Z,30.23
2018-08-17T11:54:56.929Z,30.16
2018-08-17T11:55:56.925Z,30.11
2018-08-17T11:56:56.930Z,30.34
2018-08-17T11:57:56.936Z,30.42
2018-08-17T11:58:56.936Z,30.57
2018-08-17T11:59:56.946Z,30.59
2018-08-17T12:00:56.944Z,30.82
2018-08-17T12:01:56.997Z,30.97
2018-08-17T12:02:56.951Z,31.00
2018-08-17T12:03:56.961Z,31.04
2018-08-17T12:04:56.956Z,31.07
2018-08-17T12:05:56.959Z,31.00
2018-08-17T12:06:56.971Z,30.68
2018-08-17T12:07:56.971Z,30.76
2018-08-17T12:08:56.974Z,30.85
2018-08-17T12:09:56.977Z,31.00
2018-08-17T12:10:56.986Z,31.03
2018-08-17T12:11:56.982Z,31.22
2018-08-17T12:12:56.987Z,31.35
2018-08-17T12:13:56.990Z,31.47
2018-08-17T12:14:56.993Z,31.67
2018-08-17T12:15:57.001Z,31.59
2018-08-17T12:16:56.999Z,31.69
2018-08-17T12:17:57.004Z,31.79
2018-08-17T12:18:57.009Z,31.90
2018-08-17T12:19:57.013Z,31.92
2018-08-17T12:20:57.014Z,32.07
2018-08-17T12:21:57.023Z,32.12
2018-08-17T12:22:57.030Z,32.21
2018-08-17T12:23:57.035Z,32.25
2018-08-17T12:24:57.056Z,32.36
2018-08-17T12:25:57.041Z,32.29
2018-08-17T12:26:57.042Z,32.22
2018-08-17T12:27:57.046Z,32.29
2018-08-17T12:28:57.054Z,32.32
2018-08-17T12:29:57.060Z,32.40
2018-08-17T12:30:57.061Z,32.40
2018-08-17T12:31:57.115Z,32.46
2018-08-17T12:32:57.067Z,32.46
2018-08-17T12:33:57.070Z,32.49
2018-08-17T12:34:57.081Z,32.59
2018-08-17T12:35:57.086Z,32.56
2018-08-17T12:36:57.083Z,32.66
2018-08-17T12:37:57.093Z,32.76
2018-08-17T12:38:57.101Z,32.68
2018-08-17T12:39:57.139Z,32.65
2018-08-17T12:40:57.104Z,32.47
2018-08-17T12:41:57.107Z,32.62
2018-08-17T12:42:57.117Z,32.65
2018-08-17T12:43:57.116Z,32.69
2018-08-17T12:44:57.124Z,32.76
2018-08-17T12:45:57.132Z,32.58
2018-08-17T12:46:57.132Z,32.46
2018-08-17T12:47:57.140Z,32.56
2018-08-17T12:48:57.140Z,32.54
2018-08-17T12:49:57.144Z,32.53
2018-08-17T12:50:57.152Z,32.53
2018-08-17T12:51:57.157Z,32.43
2018-08-17T12:52:57.159Z,32.32